createdAt,value
2023-05-15T00:01:50.751Z,92.84
2023-05-15T00:04:17.372Z,92.70
2023-05-15T00:06:44.178Z,93.52
2023-05-15T00:09:10.770Z,93.91
2023-05-15T00:11:37.412Z,93.95
2023-05-15T00:14:04.025Z,94.80
2023-05-15T00:16:30.701Z,94.71
2023-05-15T00:18:57.347Z,95.60
2023-05-15T00:21:24.012Z,95.86
2023-05-15T00:23:54.008Z,96.20
2023-05-15T00:26:23.275Z,96.69
2023-05-15T00:28:50.751Z,98.21
2023-05-15T00:31:17.508Z,98.94
2023-05-15T00:33:44.251Z,99.35
2023-05-15T00:36:10.929Z,98.82
2023-05-15T00:38:37.545Z,97.21
2023-05-15T00:41:06.378Z,97.93
2023-05-15T00:43:33.473Z,98.37
2023-05-15T00:46:01.972Z,99.02
2023-05-15T00:48:29.537Z,98.38
2023-05-15T00:50:58.999Z,96.45
2023-05-15T00:53:27.291Z,96.75
2023-05-15T00:55:57.353Z,97.01
2023-05-15T00:58:26.888Z,97.43
2023-05-15T01:00:53.883Z,97.96
2023-05-15T01:03:20.730Z,98.59
2023-05-15T01:05:47.562Z,98.83
2023-05-15T01:08:37.747Z,98.30
2023-05-15T01:11:08.112Z,99.45
2023-05-15T01:13:34.963Z,100.00
2023-05-15T01:16:01.936Z,100.00
2023-05-15T01:18:32.431Z,100.00
2023-05-15T01:21:26.586Z,100.00
2023-05-15T01:24:32.207Z,100.00
2023-05-15T01:27:18.759Z,100.00
2023-05-15T01:30:18.930Z,100.00
2023-05-15T01:33:12.044Z,100.00
2023-05-15T01:35:43.832Z,100.00
2023-05-15T01:38:32.844Z,100.00
2023-05-15T01:41:06.153Z,100.00
2023-05-15T01:43:35.242Z,100.00
2023-05-15T01:46:02.984Z,100.00
2023-05-15T01:48:32.660Z,100.00
2023-05-15T01:51:01.742Z,100.00
2023-05-15T01:53:32.067Z,100.00
2023-05-15T01:55:59.784Z,100.00
2023-05-15T01:58:28.162Z,100.00
2023-05-15T02:00:56.424Z,100.00
2023-05-15T02:03:23.727Z,100.00
2023-05-15T02:05:51.920Z,100.00
2023-05-15T02:08:20.582Z,100.00
2023-05-15T02:10:47.993Z,100.00
2023-05-15T02:13:16.892Z,100.00
2023-05-15T02:15:43.453Z,100.00
2023-05-15T02:18:10.118Z,100.00
2023-05-15T02:20:36.743Z,100.00
2023-05-15T02:23:03.331Z,100.00
2023-05-15T02:25:50.046Z,100.00
2023-05-15T02:28:33.931Z,100.00
2023-05-15T02:31:11.910Z,100.00
2023-05-15T02:33:55.810Z,100.00
2023-05-15T02:36:30.771Z,100.00
2023-05-15T02:38:59.550Z,100.00
2023-05-15T02:41:27.127Z,100.00
2023-05-15T02:43:55.516Z,100.00
2023-05-15T02:46:25.090Z,100.00
2023-05-15T02:48:54.074Z,100.00
2023-05-15T02:51:21.157Z,100.00
2023-05-15T02:53:48.563Z,100.00
2023-05-15T02:56:15.085Z,100.00
2023-05-15T02:58:42.104Z,100.00
2023-05-15T03:01:08.849Z,100.00
2023-05-15T03:03:35.584Z,100.00
2023-05-15T03:06:02.696Z,100.00
2023-05-15T03:08:29.376Z,100.00
2023-05-15T03:10:56.205Z,100.00
2023-05-15T03:13:22.852Z,100.00
2023-05-15T03:15:49.527Z,100.00
2023-05-15T03:18:18.950Z,100.00
2023-05-15T03:20:45.898Z,100.00
2023-05-15T03:23:12.483Z,100.00
2023-05-15T03:25:39.035Z,100.00
2023-05-15T03:28:05.783Z,100.00
2023-05-15T03:30:32.395Z,100.00
2023-05-15T03:32:59.172Z,100.00
2023-05-15T03:35:27.071Z,100.00
2023-05-15T03:37:53.756Z,100.00
2023-05-15T03:40:20.457Z,100.00
2023-05-15T03:42:47.038Z,100.00
2023-05-15T03:45:13.694Z,100.00
2023-05-15T03:47:41.087Z,100.00
2023-05-15T03:50:07.946Z,100.00
2023-05-15T03:52:34.613Z,100.00
2023-05-15T03:55:01.663Z,100.00
2023-05-15T03:57:28.452Z,100.00
2023-05-15T03:59:55.110Z,100.00
2023-05-15T04:02:21.810Z,100.00
2023-05-15T04:04:48.762Z,100.00
2023-05-15T04:07:15.448Z,100.00
2023-05-15T04:09:41.999Z,100.00
2023-05-15T04:12:08.747Z,100.00
2023-05-15T04:14:35.546Z,100.00
2023-05-15T04:17:02.143Z,100.00
2023-05-15T04:19:28.790Z,100.00
2023-05-15T04:21:55.445Z,100.00
2023-05-15T04:24:22.084Z,100.00
2023-05-15T04:26:48.734Z,100.00
2023-05-15T04:29:15.614Z,100.00
2023-05-15T04:31:42.226Z,100.00
2023-05-15T04:34:08.919Z,100.00
2023-05-15T04:36:35.524Z,100.00
2023-05-15T04:39:02.099Z,100.00
2023-05-15T04:41:28.697Z,100.00
2023-05-15T04:43:55.419Z,100.00
2023-05-15T04:46:22.005Z,100.00
2023-05-15T04:48:48.604Z,100.00
2023-05-15T04:51:15.319Z,100.00
2023-05-15T04:53:41.964Z,100.00
2023-05-15T04:56:08.538Z,100.00
2023-05-15T04:58:35.474Z,100.00
2023-05-15T05:01:03.842Z,100.00
2023-05-15T05:03:31.117Z,100.00
2023-05-15T05:05:57.785Z,100.00
2023-05-15T05:08:24.375Z,100.00
2023-05-15T05:10:56.280Z,100.00
2023-05-15T05:13:22.918Z,100.00
2023-05-15T05:15:49.507Z,100.00
2023-05-15T05:18:16.213Z,100.00
2023-05-15T05:20:42.834Z,100.00
2023-05-15T05:23:09.458Z,100.00
2023-05-15T05:25:36.057Z,100.00
2023-05-15T05:28:02.702Z,100.00
2023-05-15T05:30:29.269Z,100.00
2023-05-15T05:32:56.090Z,100.00
2023-05-15T05:35:22.975Z,100.00
2023-05-15T05:37:49.688Z,100.00
2023-05-15T05:40:17.625Z,100.00
2023-05-15T05:42:44.289Z,100.00
2023-05-15T05:45:11.423Z,100.00
2023-05-15T05:47:38.118Z,100.00
2023-05-15T05:50:05.546Z,100.00
2023-05-15T05:52:32.324Z,100.00
2023-05-15T05:54:58.984Z,100.00
2023-05-15T05:57:25.951Z,100.00
2023-05-15T05:59:52.697Z,100.00
2023-05-15T06:02:19.584Z,100.00
2023-05-15T06:04:46.411Z,100.00
2023-05-15T06:07:13.031Z,100.00
2023-05-15T06:09:39.722Z,100.00
2023-05-15T06:12:08.371Z,100.00
2023-05-15T06:14:35.949Z,100.00
2023-05-15T06:17:02.673Z,100.00
2023-05-15T06:19:29.552Z,100.00
2023-05-15T06:21:56.117Z,100.00
2023-05-15T06:24:22.642Z,100.00
2023-05-15T06:26:50.451Z,100.00
2023-05-15T06:29:17.884Z,100.00
2023-05-15T06:31:44.416Z,100.00
2023-05-15T06:34:11.015Z,100.00
2023-05-15T06:36:37.730Z,100.00
2023-05-15T06:39:04.332Z,100.00
2023-05-15T06:41:32.024Z,99.48
2023-05-15T06:43:59.644Z,98.61
2023-05-15T06:46:26.320Z,100.00
2023-05-15T06:48:52.918Z,100.00
2023-05-15T06:51:19.604Z,100.00
2023-05-15T06:53:46.445Z,98.04
2023-05-15T06:56:13.041Z,96.92
2023-05-15T06:58:39.623Z,97.00
2023-05-15T07:01:07.123Z,97.88
2023-05-15T07:03:34.144Z,97.25
2023-05-15T07:06:00.792Z,97.29
2023-05-15T07:08:27.451Z,97.81
2023-05-15T07:10:54.039Z,96.14
2023-05-15T07:13:21.236Z,94.99
2023-05-15T07:15:47.877Z,95.25
2023-05-15T07:18:14.517Z,93.58
2023-05-15T07:20:41.156Z,93.47
2023-05-15T07:23:07.698Z,94.94
2023-05-15T07:25:34.376Z,95.79
2023-05-15T07:28:00.938Z,94.02
2023-05-15T07:30:27.720Z,93.65
2023-05-15T07:32:54.504Z,94.39
2023-05-15T07:35:21.135Z,94.41
2023-05-15T07:37:47.771Z,96.40
2023-05-15T07:40:15.567Z,95.14
2023-05-15T07:42:44.627Z,95.37
2023-05-15T07:45:11.438Z,95.42
2023-05-15T07:47:38.170Z,96.75
2023-05-15T07:50:05.249Z,96.19
2023-05-15T07:52:31.906Z,96.32
2023-05-15T07:54:58.450Z,93.46
2023-05-15T07:57:26.438Z,94.34
2023-05-15T07:59:53.194Z,93.76
2023-05-15T08:02:19.804Z,93.42
2023-05-15T08:04:46.540Z,93.89
2023-05-15T08:07:14.317Z,93.50
2023-05-15T08:09:41.378Z,95.52
2023-05-15T08:12:23.215Z,94.60
2023-05-15T08:14:50.268Z,93.00
2023-05-15T08:17:17.271Z,93.67
2023-05-15T08:19:43.896Z,92.82
2023-05-15T08:22:10.776Z,92.13
2023-05-15T08:24:38.207Z,95.66
2023-05-15T08:27:06.181Z,95.37
2023-05-15T08:29:33.431Z,97.44
2023-05-15T08:31:59.995Z,97.51
2023-05-15T08:34:27.150Z,97.87
2023-05-15T08:36:53.786Z,96.11
2023-05-15T08:39:20.497Z,94.97
2023-05-15T08:41:53.237Z,95.31
2023-05-15T08:44:21.143Z,95.06
2023-05-15T08:46:47.931Z,93.13
2023-05-15T08:50:00.519Z,91.89
2023-05-15T08:52:28.654Z,90.92
2023-05-15T08:54:55.286Z,87.44
2023-05-15T08:57:22.582Z,88.64
2023-05-15T08:59:51.152Z,86.26
2023-05-15T09:02:18.649Z,87.27
2023-05-15T09:04:45.396Z,89.53
2023-05-15T09:07:12.299Z,89.07
2023-05-15T09:09:39.855Z,88.87
2023-05-15T09:12:13.135Z,87.62
2023-05-15T09:14:39.984Z,89.28
2023-05-15T09:17:06.667Z,88.58
2023-05-15T09:19:42.583Z,87.48
2023-05-15T09:22:24.224Z,88.07
2023-05-15T09:24:53.202Z,86.23
2023-05-15T09:27:20.592Z,89.25
2023-05-15T09:29:47.335Z,89.15
2023-05-15T09:32:14.841Z,90.11
2023-05-15T09:34:44.308Z,87.57
2023-05-15T09:37:11.559Z,89.89
2023-05-15T09:39:43.117Z,90.46
2023-05-15T09:42:11.719Z,86.61
2023-05-15T09:44:46.254Z,85.29
2023-05-15T09:47:14.197Z,83.11
2023-05-15T09:49:44.672Z,85.51
2023-05-15T09:52:11.580Z,84.13
2023-05-15T09:54:38.718Z,84.46
2023-05-15T09:57:10.417Z,86.35
2023-05-15T09:59:43.762Z,85.65
2023-05-15T10:02:14.427Z,87.88
2023-05-15T10:04:41.031Z,87.97
2023-05-15T10:07:08.948Z,87.52
2023-05-15T10:09:35.597Z,85.07
2023-05-15T10:12:02.905Z,84.03
2023-05-15T10:14:31.495Z,82.81
2023-05-15T10:16:58.080Z,82.05
2023-05-15T10:19:27.580Z,86.51
2023-05-15T10:21:58.621Z,86.10
2023-05-15T10:24:28.359Z,85.31
2023-05-15T10:26:55.904Z,84.18
2023-05-15T10:29:26.716Z,81.90
2023-05-15T10:31:54.061Z,81.66
2023-05-15T10:34:21.381Z,81.39
2023-05-15T10:36:49.822Z,81.56
2023-05-15T10:39:16.804Z,82.43
2023-05-15T10:41:45.857Z,81.76
2023-05-15T10:44:14.754Z,83.93
2023-05-15T10:46:41.517Z,81.60
2023-05-15T10:49:08.342Z,81.02
2023-05-15T10:51:37.626Z,80.00
2023-05-15T10:54:04.373Z,77.67
2023-05-15T10:56:32.276Z,77.45
2023-05-15T10:59:06.038Z,76.56
2023-05-15T11:01:35.658Z,75.75
2023-05-15T11:04:12.102Z,77.75
2023-05-15T11:06:44.296Z,76.57
2023-05-15T11:09:36.305Z,77.00
2023-05-15T11:12:04.729Z,76.16
2023-05-15T11:14:33.988Z,77.03
2023-05-15T11:17:04.071Z,73.32
2023-05-15T11:19:58.237Z,72.66
2023-05-15T11:22:28.945Z,75.32
2023-05-15T11:24:58.412Z,74.44
2023-05-15T11:27:27.118Z,72.75
2023-05-15T11:30:21.884Z,72.46
2023-05-15T11:32:48.470Z,70.89
2023-05-15T11:35:23.118Z,70.27
2023-05-15T11:38:11.025Z,71.13
2023-05-15T11:40:56.462Z,69.79
2023-05-15T11:43:27.898Z,69.01
2023-05-15T11:45:58.431Z,67.86
2023-05-15T11:48:31.368Z,68.72
2023-05-15T11:50:58.100Z,66.93
2023-05-15T11:53:25.118Z,63.71
2023-05-15T11:55:54.143Z,67.08
2023-05-15T11:58:22.510Z,65.64
2023-05-15T12:00:51.368Z,65.26
2023-05-15T12:03:23.952Z,62.63
2023-05-15T12:05:58.908Z,66.29
2023-05-15T12:08:32.003Z,65.04
2023-05-15T12:10:59.191Z,61.93
2023-05-15T12:13:26.082Z,60.84
2023-05-15T12:15:55.338Z,62.21
2023-05-15T12:18:21.837Z,63.90
2023-05-15T12:20:51.233Z,62.71
2023-05-15T12:23:18.053Z,61.11
2023-05-15T12:25:47.347Z,62.40
2023-05-15T12:28:14.496Z,63.14
2023-05-15T12:30:42.903Z,62.48
2023-05-15T12:33:10.810Z,61.08
2023-05-15T12:35:42.360Z,60.66
2023-05-15T12:38:13.890Z,59.73
2023-05-15T12:40:40.840Z,58.68
2023-05-15T12:43:08.378Z,60.24
2023-05-15T12:45:41.362Z,58.07
2023-05-15T12:48:08.141Z,60.23
2023-05-15T12:50:35.840Z,59.18
2023-05-15T12:53:04.626Z,58.26
2023-05-15T12:55:36.596Z,60.77
2023-05-15T12:58:12.413Z,60.90
2023-05-15T13:00:41.611Z,59.07
2023-05-15T13:03:10.957Z,57.71
2023-05-15T13:05:38.727Z,58.62
2023-05-15T13:08:09.099Z,58.38
2023-05-15T13:10:38.042Z,63.06
2023-05-15T13:13:04.677Z,58.15
2023-05-15T13:15:36.278Z,56.63
2023-05-15T13:18:07.937Z,56.69
2023-05-15T13:20:37.242Z,56.18
2023-05-15T13:23:03.792Z,59.14
2023-05-15T13:25:32.173Z,56.63
2023-05-15T13:28:01.683Z,55.92
2023-05-15T13:30:28.431Z,55.03
2023-05-15T13:32:55.911Z,51.61
2023-05-15T13:35:23.505Z,51.37
2023-05-15T13:37:50.337Z,53.38
2023-05-15T13:40:17.175Z,52.51
2023-05-15T13:42:44.311Z,51.42
2023-05-15T13:45:15.429Z,51.53
2023-05-15T13:47:43.196Z,51.48
2023-05-15T13:50:12.320Z,51.26
2023-05-15T13:52:40.143Z,49.20
2023-05-15T13:55:09.764Z,47.89
2023-05-15T13:57:37.982Z,46.72
2023-05-15T14:00:13.179Z,47.40
2023-05-15T14:02:41.617Z,48.13
2023-05-15T14:05:09.278Z,46.35
2023-05-15T14:07:36.321Z,46.84
2023-05-15T14:10:04.011Z,46.24
2023-05-15T14:12:31.046Z,46.00
2023-05-15T14:14:57.967Z,46.76
2023-05-15T14:17:24.977Z,48.43
2023-05-15T14:19:52.112Z,47.45
2023-05-15T14:22:18.778Z,48.06
2023-05-15T14:24:45.411Z,49.04
2023-05-15T14:27:12.002Z,48.47
2023-05-15T14:29:39.443Z,47.96
2023-05-15T14:32:06.579Z,47.15
2023-05-15T14:34:34.029Z,45.68
2023-05-15T14:37:00.664Z,46.11
2023-05-15T14:39:27.284Z,45.00
2023-05-15T14:41:53.886Z,46.07
2023-05-15T14:44:20.605Z,46.04
2023-05-15T14:46:47.290Z,45.11
2023-05-15T14:49:14.118Z,44.94
2023-05-15T14:51:40.750Z,45.26
2023-05-15T14:54:07.394Z,45.64
2023-05-15T14:56:33.976Z,44.01
2023-05-15T14:59:01.047Z,46.41
2023-05-15T15:01:27.665Z,44.51
2023-05-15T15:03:54.447Z,43.98
2023-05-15T15:06:21.219Z,44.51
2023-05-15T15:08:47.811Z,44.61
2023-05-15T15:11:14.500Z,45.94
2023-05-15T15:13:41.131Z,45.61
2023-05-15T15:16:08.254Z,46.55
2023-05-15T15:18:34.976Z,44.20
2023-05-15T15:21:01.892Z,45.21
2023-05-15T15:23:28.535Z,44.79
2023-05-15T15:25:55.200Z,43.56
2023-05-15T15:28:21.741Z,42.02
2023-05-15T15:30:48.385Z,41.58
2023-05-15T15:33:15.086Z,42.63
2023-05-15T15:35:41.835Z,42.13
2023-05-15T15:38:11.411Z,43.78
2023-05-15T15:40:37.993Z,41.58
2023-05-15T15:43:04.579Z,43.14
2023-05-15T15:45:31.288Z,40.23
2023-05-15T15:47:57.879Z,41.88
2023-05-15T15:50:24.807Z,42.40
2023-05-15T15:52:51.711Z,43.11
2023-05-15T15:55:18.302Z,44.17
2023-05-15T15:57:45.093Z,41.62
2023-05-15T16:00:12.796Z,42.79
2023-05-15T16:02:42.371Z,42.63
2023-05-15T16:05:09.800Z,43.27
2023-05-15T16:07:37.008Z,42.99
2023-05-15T16:10:12.266Z,43.06
2023-05-15T16:12:40.724Z,43.35
2023-05-15T16:15:21.001Z,43.44
2023-05-15T16:17:52.767Z,42.86
2023-05-15T16:20:20.106Z,42.76
2023-05-15T16:22:46.704Z,43.69
2023-05-15T16:25:13.315Z,44.06
2023-05-15T16:27:39.875Z,44.52
2023-05-15T16:30:07.254Z,45.52
2023-05-15T16:32:34.161Z,46.57
2023-05-15T16:35:01.161Z,47.11
2023-05-15T16:37:28.934Z,46.72
2023-05-15T16:39:55.579Z,45.94
2023-05-15T16:42:22.155Z,47.44
2023-05-15T16:44:51.117Z,47.75
2023-05-15T16:47:17.889Z,47.53
2023-05-15T16:49:45.717Z,47.08
2023-05-15T16:52:13.569Z,46.62
2023-05-15T16:54:41.920Z,46.78
2023-05-15T16:57:08.708Z,47.27
2023-05-15T16:59:35.402Z,46.21
2023-05-15T17:02:02.065Z,46.32
2023-05-15T17:04:33.124Z,46.00
2023-05-15T17:06:59.906Z,45.65
2023-05-15T17:09:26.562Z,46.63
2023-05-15T17:11:53.129Z,46.81
2023-05-15T17:14:19.726Z,47.34
2023-05-15T17:16:46.373Z,47.37
2023-05-15T17:19:13.183Z,47.94
2023-05-15T17:21:39.931Z,48.27
2023-05-15T17:24:06.758Z,48.72
2023-05-15T17:26:33.486Z,49.29
2023-05-15T17:29:00.265Z,50.54
2023-05-15T17:31:29.118Z,49.81
2023-05-15T17:33:55.721Z,49.97
2023-05-15T17:36:22.286Z,50.61
2023-05-15T17:38:48.857Z,50.22
2023-05-15T17:41:15.548Z,51.13
2023-05-15T17:43:42.087Z,51.10
2023-05-15T17:46:08.711Z,50.34
2023-05-15T17:48:36.161Z,51.61
2023-05-15T17:51:02.773Z,51.77
2023-05-15T17:53:29.368Z,51.45
2023-05-15T17:55:55.993Z,51.52
2023-05-15T17:58:22.741Z,51.88
2023-05-15T18:00:51.700Z,53.29
2023-05-15T18:03:18.413Z,55.44
2023-05-15T18:05:46.980Z,56.49
2023-05-15T18:08:14.049Z,59.39
2023-05-15T18:10:40.674Z,59.10
2023-05-15T18:13:07.277Z,60.09
2023-05-15T18:15:35.163Z,62.35
2023-05-15T18:18:02.291Z,62.22
2023-05-15T18:20:29.053Z,62.05
2023-05-15T18:22:55.706Z,62.17
2023-05-15T18:25:22.329Z,62.47
2023-05-15T18:27:48.928Z,63.21
2023-05-15T18:30:18.693Z,62.67
2023-05-15T18:32:45.321Z,64.35
2023-05-15T18:35:12.636Z,66.70
2023-05-15T18:37:39.252Z,69.80
2023-05-15T18:40:06.398Z,71.45
2023-05-15T18:42:32.976Z,72.68
2023-05-15T18:44:59.617Z,74.34
2023-05-15T18:47:26.341Z,74.44
2023-05-15T18:49:52.968Z,76.23
2023-05-15T18:52:20.047Z,76.17
2023-05-15T18:54:47.806Z,76.29
2023-05-15T18:57:14.603Z,78.07
2023-05-15T18:59:41.715Z,78.46
2023-05-15T19:02:09.585Z,79.46
2023-05-15T19:04:36.424Z,80.62
2023-05-15T19:07:03.087Z,81.25
2023-05-15T19:09:29.695Z,82.30
2023-05-15T19:11:56.375Z,82.66
2023-05-15T19:14:22.898Z,82.72
2023-05-15T19:16:49.619Z,83.03
2023-05-15T19:19:16.855Z,83.43
2023-05-15T19:21:43.725Z,84.17
2023-05-15T19:24:10.446Z,84.66
2023-05-15T19:26:36.971Z,85.38
2023-05-15T19:29:03.596Z,87.25
2023-05-15T19:31:31.742Z,86.91
2023-05-15T19:33:59.198Z,86.34
2023-05-15T19:36:25.924Z,86.14
2023-05-15T19:38:52.671Z,85.49
2023-05-15T19:41:19.386Z,85.41
2023-05-15T19:43:46.980Z,84.59
2023-05-15T19:46:13.864Z,84.14
2023-05-15T19:48:40.786Z,84.53
2023-05-15T19:51:07.404Z,84.80
2023-05-15T19:53:34.511Z,85.25
2023-05-15T19:56:01.324Z,85.62
2023-05-15T19:58:27.868Z,85.70
2023-05-15T20:00:54.763Z,86.40
2023-05-15T20:03:22.175Z,86.38
2023-05-15T20:05:48.863Z,86.68
2023-05-15T20:08:17.067Z,87.42
2023-05-15T20:10:44.515Z,87.91
2023-05-15T20:13:11.631Z,88.08
2023-05-15T20:15:39.822Z,87.68
2023-05-15T20:18:07.279Z,87.98
2023-05-15T20:20:35.713Z,87.69
2023-05-15T20:23:02.317Z,89.13
2023-05-15T20:25:29.467Z,90.67
2023-05-15T20:27:58.469Z,90.95
2023-05-15T20:30:27.092Z,91.83
2023-05-15T20:32:53.947Z,90.24
2023-05-15T20:35:20.823Z,90.59
2023-05-15T20:37:47.582Z,91.37
2023-05-15T20:40:15.747Z,90.59
2023-05-15T20:42:43.061Z,91.34
2023-05-15T20:45:10.191Z,91.01
2023-05-15T20:47:36.829Z,91.21
2023-05-15T20:50:03.668Z,91.62
2023-05-15T20:52:30.695Z,91.93
2023-05-15T20:54:57.374Z,92.20
2023-05-15T20:57:24.012Z,91.73
2023-05-15T20:59:50.627Z,91.26
2023-05-15T21:02:17.246Z,92.02
2023-05-15T21:04:44.027Z,91.91
2023-05-15T21:07:11.027Z,92.83
2023-05-15T21:09:37.583Z,92.44
2023-05-15T21:12:04.444Z,93.02
2023-05-15T21:14:31.083Z,94.41
2023-05-15T21:16:57.797Z,93.86
2023-05-15T21:19:24.547Z,94.37
2023-05-15T21:21:51.289Z,95.05
2023-05-15T21:24:18.072Z,94.13
2023-05-15T21:26:44.834Z,93.85
2023-05-15T21:29:11.525Z,94.36
2023-05-15T21:31:38.484Z,94.02
2023-05-15T21:34:05.255Z,94.18
2023-05-15T21:36:31.837Z,93.68
2023-05-15T21:38:58.393Z,93.54
2023-05-15T21:41:26.124Z,93.52
2023-05-15T21:43:53.102Z,93.55
2023-05-15T21:46:19.830Z,94.05
2023-05-15T21:48:46.884Z,94.15
2023-05-15T21:51:13.471Z,95.26
2023-05-15T21:53:40.153Z,94.72
2023-05-15T21:56:07.292Z,95.07
2023-05-15T21:58:33.981Z,96.51
2023-05-15T22:01:00.553Z,95.41
2023-05-15T22:03:27.630Z,95.25
2023-05-15T22:05:54.314Z,96.11
2023-05-15T22:08:21.489Z,95.44
2023-05-15T22:10:49.027Z,96.15
2023-05-15T22:13:15.812Z,96.63
2023-05-15T22:15:42.847Z,96.37
2023-05-15T22:18:09.547Z,97.93
2023-05-15T22:20:36.210Z,99.10
2023-05-15T22:23:02.918Z,98.31
2023-05-15T22:25:29.636Z,97.75
2023-05-15T22:27:56.424Z,98.38
2023-05-15T22:30:23.084Z,99.06
2023-05-15T22:32:49.756Z,100.00
2023-05-15T22:35:16.551Z,100.00
2023-05-15T22:37:45.310Z,100.00
2023-05-15T22:40:15.462Z,100.00
2023-05-15T22:42:42.028Z,100.00
2023-05-15T22:45:09.425Z,100.00
2023-05-15T22:47:36.158Z,100.00
2023-05-15T22:50:02.839Z,100.00
2023-05-15T22:52:29.361Z,100.00
2023-05-15T22:54:55.944Z,100.00
2023-05-15T22:57:23.143Z,100.00
2023-05-15T22:59:49.720Z,100.00
2023-05-15T23:02:16.480Z,100.00
2023-05-15T23:04:43.338Z,100.00
2023-05-15T23:07:09.917Z,100.00
2023-05-15T23:09:36.573Z,100.00
2023-05-15T23:12:04.393Z,100.00
2023-05-15T23:14:31.207Z,99.44
2023-05-15T23:16:57.803Z,100.00
2023-05-15T23:19:24.423Z,99.93
2023-05-15T23:21:51.106Z,98.65
2023-05-15T23:24:17.763Z,98.13
2023-05-15T23:26:44.417Z,98.62
2023-05-15T23:29:11.265Z,100.00
2023-05-15T23:31:39.105Z,100.00
2023-05-15T23:34:06.572Z,100.00
2023-05-15T23:36:33.066Z,100.00
2023-05-15T23:38:59.622Z,100.00
2023-05-15T23:41:26.340Z,100.00
2023-05-15T23:43:52.974Z,100.00
2023-05-15T23:46:19.782Z,100.00
2023-05-15T23:48:46.485Z,100.00
2023-05-15T23:51:13.191Z,100.00
2023-05-15T23:53:39.783Z,100.00
2023-05-15T23:56:07.293Z,100.00
2023-05-15T23:58:34.083Z,100.00
